createdAt,value
2023-01-03T00:01:32.644Z,9.07
2023-01-03T00:04:01.246Z,8.43
2023-01-03T00:06:37.108Z,8.02
2023-01-03T00:09:06.650Z,8.43
2023-01-03T00:11:52.882Z,8.48
2023-01-03T00:14:24.486Z,9.00
2023-01-03T00:16:54.364Z,9.32
2023-01-03T00:19:22.902Z,10.02
2023-01-03T00:21:50.166Z,9.98
2023-01-03T00:24:17.570Z,9.05
2023-01-03T00:26:45.638Z,9.63
2023-01-03T00:29:12.759Z,9.63
2023-01-03T00:31:40.527Z,8.93
2023-01-03T00:34:08.386Z,9.23
2023-01-03T00:36:36.759Z,8.30
2023-01-03T00:39:05.351Z,7.97
2023-01-03T00:41:32.880Z,7.28
2023-01-03T00:44:00.459Z,8.27
2023-01-03T00:46:27.544Z,7.35
2023-01-03T00:48:54.558Z,6.80
2023-01-03T00:51:24.811Z,6.03
2023-01-03T00:53:56.170Z,6.28
2023-01-03T00:56:25.578Z,6.45
2023-01-03T00:58:53.591Z,7.07
2023-01-03T01:01:31.850Z,6.78
2023-01-03T01:04:04.534Z,6.78
2023-01-03T01:06:35.641Z,6.05
2023-01-03T01:09:05.186Z,6.30
2023-01-03T01:11:32.856Z,6.53
2023-01-03T01:13:59.850Z,6.55
2023-01-03T01:16:30.265Z,5.80
2023-01-03T01:19:00.280Z,6.20
2023-01-03T01:21:30.129Z,5.47
2023-01-03T01:23:59.637Z,6.05
2023-01-03T01:26:27.303Z,6.93
2023-01-03T01:28:55.365Z,6.82
2023-01-03T01:31:26.898Z,6.78
2023-01-03T01:33:55.878Z,6.03
2023-01-03T01:36:28.966Z,5.57
2023-01-03T01:38:58.925Z,5.25
2023-01-03T01:41:46.935Z,5.28
2023-01-03T01:47:19.052Z,4.68
2023-01-03T01:49:48.478Z,4.95
2023-01-03T01:52:18.621Z,5.00
2023-01-03T01:54:47.755Z,5.03
2023-01-03T01:57:20.039Z,4.85
2023-01-03T01:59:47.576Z,4.63
2023-01-03T02:02:19.483Z,5.07
2023-01-03T02:04:49.256Z,4.82
2023-01-03T02:07:18.562Z,4.88
2023-01-03T02:09:47.607Z,5.13
2023-01-03T02:13:06.645Z,4.65
2023-01-03T02:15:36.424Z,6.18
2023-01-03T02:18:06.464Z,6.35
2023-01-03T02:21:04.122Z,5.28
2023-01-03T02:26:19.297Z,4.75
2023-01-03T02:28:58.386Z,6.43
2023-01-03T02:31:34.163Z,5.20
2023-01-03T02:34:07.519Z,5.27
2023-01-03T02:36:52.235Z,5.55
2023-01-03T02:39:45.346Z,7.20
2023-01-03T02:42:41.470Z,5.72
2023-01-03T02:45:14.624Z,6.28
2023-01-03T02:47:58.005Z,6.40
2023-01-03T02:50:31.504Z,6.47
2023-01-03T02:53:03.853Z,6.78
2023-01-03T02:55:32.974Z,5.78
2023-01-03T02:58:12.297Z,7.05
2023-01-03T03:00:46.005Z,6.97
2023-01-03T03:03:17.100Z,6.80
2023-01-03T03:05:56.885Z,7.10
2023-01-03T03:08:23.856Z,7.40
2023-01-03T03:11:11.799Z,7.55
2023-01-03T03:13:55.549Z,7.57
2023-01-03T03:16:47.943Z,8.38
2023-01-03T03:19:44.972Z,7.53
2023-01-03T03:22:51.839Z,7.97
2023-01-03T03:25:26.305Z,7.55
2023-01-03T03:28:18.250Z,7.30
2023-01-03T03:30:48.748Z,6.85
2023-01-03T03:33:18.385Z,7.88
2023-01-03T03:35:55.341Z,8.65
2023-01-03T03:38:44.011Z,8.25
2023-01-03T03:42:06.000Z,8.00
2023-01-03T03:45:00.947Z,8.02
2023-01-03T03:48:01.009Z,8.35
2023-01-03T03:50:33.036Z,8.25
2023-01-03T03:53:05.037Z,7.80
2023-01-03T03:55:40.820Z,8.10
2023-01-03T03:58:36.852Z,7.00
2023-01-03T04:01:05.038Z,6.75
2023-01-03T04:03:34.149Z,7.13
2023-01-03T04:06:09.132Z,6.38
2023-01-03T04:08:36.995Z,6.25
2023-01-03T04:11:07.337Z,7.68
2023-01-03T04:13:36.433Z,7.82
2023-01-03T04:16:04.794Z,7.50
2023-01-03T04:18:31.907Z,7.55
2023-01-03T04:20:59.007Z,7.82
2023-01-03T04:23:26.181Z,8.45
2023-01-03T04:25:53.207Z,8.13
2023-01-03T04:28:20.521Z,7.35
2023-01-03T04:30:47.844Z,6.80
2023-01-03T04:33:14.738Z,6.22
2023-01-03T04:35:41.736Z,6.18
2023-01-03T04:38:09.583Z,6.22
2023-01-03T04:40:38.843Z,5.15
2023-01-03T04:43:24.371Z,5.13
2023-01-03T04:45:51.953Z,4.45
2023-01-03T04:48:19.274Z,4.60
2023-01-03T04:50:53.960Z,4.75
2023-01-03T04:53:21.501Z,4.38
2023-01-03T04:55:50.302Z,3.92
2023-01-03T04:58:17.669Z,4.40
2023-01-03T05:00:44.617Z,4.80
2023-01-03T05:03:11.787Z,4.00
2023-01-03T05:05:39.493Z,4.65
2023-01-03T05:08:12.109Z,3.95
2023-01-03T05:10:40.117Z,4.65
2023-01-03T05:13:07.588Z,3.75
2023-01-03T05:15:39.381Z,4.05
2023-01-03T05:18:06.569Z,4.07
2023-01-03T05:20:55.808Z,4.30
2023-01-03T05:23:42.186Z,4.28
2023-01-03T05:26:14.842Z,3.90
2023-01-03T05:28:45.036Z,4.38
2023-01-03T05:31:12.400Z,4.70
2023-01-03T05:33:40.253Z,4.70
2023-01-03T05:36:09.113Z,4.90
2023-01-03T05:38:37.547Z,3.83
2023-01-03T05:41:05.243Z,4.22
2023-01-03T05:43:32.641Z,4.93
2023-01-03T05:45:59.685Z,3.80
2023-01-03T05:48:27.220Z,4.15
2023-01-03T05:50:57.677Z,4.07
2023-01-03T05:53:25.506Z,4.18
2023-01-03T05:55:52.931Z,3.35
2023-01-03T05:58:20.143Z,3.40
2023-01-03T06:00:47.558Z,3.30
2023-01-03T06:03:14.947Z,3.60
2023-01-03T06:05:47.864Z,3.80
2023-01-03T06:08:17.940Z,3.42
2023-01-03T06:10:44.858Z,3.17
2023-01-03T06:13:12.155Z,3.58
2023-01-03T06:15:39.117Z,3.85
2023-01-03T06:18:06.052Z,4.30
2023-01-03T06:20:32.944Z,4.13
2023-01-03T06:22:59.931Z,4.47
2023-01-03T06:25:27.331Z,3.92
2023-01-03T06:27:55.934Z,3.00
2023-01-03T06:30:22.842Z,3.05
2023-01-03T06:32:49.814Z,3.53
2023-01-03T06:35:16.748Z,3.72
2023-01-03T06:37:43.725Z,3.45
2023-01-03T06:40:11.200Z,3.13
2023-01-03T06:42:44.783Z,3.65
2023-01-03T06:45:32.169Z,3.70
2023-01-03T06:48:21.864Z,3.55
2023-01-03T06:51:07.055Z,3.47
2023-01-03T06:53:37.888Z,3.53
2023-01-03T06:56:05.169Z,3.15
2023-01-03T06:58:32.559Z,3.05
2023-01-03T07:01:05.247Z,3.47
2023-01-03T07:03:33.354Z,3.63
2023-01-03T07:06:00.531Z,3.13
2023-01-03T07:08:27.484Z,3.28
2023-01-03T07:10:55.100Z,3.65
2023-01-03T07:13:40.344Z,3.42
2023-01-03T07:16:07.849Z,3.08
2023-01-03T07:18:34.857Z,3.10
2023-01-03T07:21:05.500Z,2.83
2023-01-03T07:23:32.510Z,3.35
2023-01-03T07:25:59.401Z,2.83
2023-01-03T07:28:26.388Z,3.15
2023-01-03T07:30:53.320Z,3.33
2023-01-03T07:33:20.244Z,3.13
2023-01-03T07:35:47.219Z,3.20
2023-01-03T07:38:15.062Z,2.80
2023-01-03T07:40:42.029Z,2.90
2023-01-03T07:43:30.814Z,3.13
2023-01-03T07:45:57.985Z,2.95
2023-01-03T07:48:24.952Z,3.05
2023-01-03T07:50:58.020Z,3.40
2023-01-03T07:53:25.543Z,3.38
2023-01-03T07:55:52.830Z,3.97
2023-01-03T07:58:19.844Z,3.97
2023-01-03T08:00:46.728Z,3.33
2023-01-03T08:03:14.551Z,3.17
2023-01-03T08:05:41.592Z,2.38
2023-01-03T08:08:09.231Z,2.53
2023-01-03T08:10:55.295Z,1.90
2023-01-03T08:13:22.563Z,2.45
2023-01-03T08:15:57.032Z,2.70
2023-01-03T08:18:26.431Z,2.50
2023-01-03T08:20:55.687Z,2.40
2023-01-03T08:23:23.943Z,3.63
2023-01-03T08:25:51.543Z,3.03
2023-01-03T08:28:18.935Z,1.50
2023-01-03T08:30:50.298Z,1.67
2023-01-03T08:33:19.305Z,1.48
2023-01-03T08:35:51.125Z,2.08
2023-01-03T08:38:33.018Z,1.40
2023-01-03T08:41:02.002Z,1.73
2023-01-03T08:43:33.518Z,1.48
2023-01-03T08:46:00.467Z,1.17
2023-01-03T08:48:27.455Z,0.85
2023-01-03T08:50:54.384Z,1.30
2023-01-03T08:53:23.060Z,1.30
2023-01-03T08:55:50.517Z,2.08
2023-01-03T08:58:18.483Z,1.35
2023-01-03T09:00:45.429Z,1.10
2023-01-03T09:03:12.518Z,1.00
2023-01-03T09:05:39.664Z,1.20
2023-01-03T09:08:06.835Z,1.48
2023-01-03T09:10:34.749Z,1.27
2023-01-03T09:13:02.679Z,1.02
2023-01-03T09:15:29.877Z,1.40
2023-01-03T09:17:56.749Z,1.50
2023-01-03T09:20:23.716Z,0.68
2023-01-03T09:22:51.014Z,0.98
2023-01-03T09:25:19.067Z,1.30
2023-01-03T09:27:49.092Z,1.40
2023-01-03T09:30:16.847Z,1.27
2023-01-03T09:32:43.995Z,1.17
2023-01-03T09:35:11.192Z,1.30
2023-01-03T09:37:38.606Z,0.80
2023-01-03T09:40:08.338Z,1.48
2023-01-03T09:42:55.357Z,1.00
2023-01-03T10:18:20.073Z,1.40
2023-01-03T10:21:05.202Z,1.30
2023-01-03T10:23:32.109Z,15.65
2023-01-03T10:25:59.793Z,20.80
2023-01-03T10:28:36.425Z,20.15
2023-01-03T10:31:21.461Z,20.90
2023-01-03T10:33:50.085Z,18.90
2023-01-03T10:36:19.592Z,17.05
2023-01-03T10:38:52.898Z,16.63
2023-01-03T10:41:30.830Z,0.98
2023-01-03T10:44:02.874Z,1.20
2023-01-03T10:46:31.239Z,0.95
2023-01-03T10:49:27.345Z,1.20
2023-01-03T10:52:12.383Z,5.03
2023-01-03T10:54:46.031Z,2.08
2023-01-03T10:57:48.525Z,2.03
2023-01-03T11:00:36.673Z,4.85
2023-01-03T11:03:10.391Z,11.75
2023-01-03T11:05:39.632Z,12.55
2023-01-03T11:08:15.899Z,12.35
2023-01-03T11:13:29.623Z,12.02
2023-01-03T11:15:59.394Z,12.50
2023-01-03T11:18:28.114Z,11.75
2023-01-03T11:21:12.138Z,11.65
2023-01-03T11:23:58.233Z,10.82
2023-01-03T11:26:30.794Z,9.90
2023-01-03T11:29:20.744Z,11.68
2023-01-03T11:32:21.870Z,9.48
2023-01-03T11:35:22.007Z,7.65
2023-01-03T11:37:49.344Z,8.68
2023-01-03T11:40:28.569Z,8.13
2023-01-03T11:43:24.183Z,7.10
2023-01-03T11:46:17.394Z,7.70
2023-01-03T11:48:47.377Z,7.68
2023-01-03T11:51:32.452Z,8.85
2023-01-03T11:54:38.091Z,7.22
2023-01-03T11:57:19.132Z,7.97
2023-01-03T12:00:15.451Z,9.23
2023-01-03T12:03:09.929Z,9.65
2023-01-03T12:05:40.953Z,8.57
2023-01-03T12:08:35.027Z,6.95
2023-01-03T12:11:07.908Z,6.80
2023-01-03T12:13:46.565Z,5.47
2023-01-03T12:16:26.358Z,5.93
2023-01-03T12:19:08.456Z,5.07
2023-01-03T12:21:43.753Z,5.88
2023-01-03T12:24:28.837Z,5.38
2023-01-03T12:27:02.364Z,6.45
2023-01-03T12:29:53.152Z,5.35
2023-01-03T12:32:31.707Z,5.60
2023-01-03T12:35:33.084Z,5.75
2023-01-03T12:38:00.008Z,6.50
2023-01-03T12:41:02.176Z,7.53
2023-01-03T12:43:36.263Z,7.25
2023-01-03T12:46:13.099Z,7.40
2023-01-03T12:48:58.809Z,6.25
2023-01-03T12:51:26.945Z,6.05
2023-01-03T12:54:05.699Z,7.47
2023-01-03T12:56:45.406Z,6.43
2023-01-03T12:59:50.482Z,6.60
2023-01-03T13:02:33.454Z,7.03
2023-01-03T13:05:29.450Z,6.40
2023-01-03T13:08:13.973Z,6.90
2023-01-03T13:10:46.827Z,6.05
2023-01-03T13:13:19.455Z,7.65
2023-01-03T13:15:47.971Z,6.13
2023-01-03T13:18:23.719Z,2.28
2023-01-03T13:20:54.702Z,2.00
2023-01-03T13:23:21.700Z,2.35
2023-01-03T13:26:19.654Z,2.42
2023-01-03T13:28:46.862Z,2.10
2023-01-03T13:31:14.627Z,2.08
2023-01-03T13:34:11.010Z,1.95
2023-01-03T13:37:07.088Z,2.30
2023-01-03T13:39:40.950Z,2.60
2023-01-03T13:42:27.804Z,2.58
2023-01-03T13:45:17.549Z,2.20
2023-01-03T13:47:50.417Z,2.42
2023-01-03T13:50:36.103Z,2.42
2023-01-03T13:53:04.481Z,2.72
2023-01-03T13:55:57.159Z,2.58
2023-01-03T13:58:43.123Z,2.60
2023-01-03T14:01:39.094Z,2.45
2023-01-03T14:04:33.894Z,2.03
2023-01-03T14:07:23.518Z,2.40
2023-01-03T14:09:56.416Z,2.80
2023-01-03T14:12:35.530Z,2.53
2023-01-03T14:15:23.046Z,2.72
2023-01-03T14:17:58.914Z,2.70
2023-01-03T14:20:32.330Z,2.20
2023-01-03T14:23:17.104Z,2.60
2023-01-03T14:25:50.893Z,2.13
2023-01-03T14:28:17.808Z,2.22
2023-01-03T14:30:46.513Z,2.45
2023-01-03T14:33:21.793Z,2.63
2023-01-03T14:35:49.293Z,2.42
2023-01-03T14:38:23.838Z,2.80
2023-01-03T14:40:51.698Z,2.78
2023-01-03T14:43:21.615Z,2.50
2023-01-03T14:46:06.360Z,3.10
2023-01-03T14:48:33.724Z,2.38
2023-01-03T14:51:03.021Z,2.72
2023-01-03T14:53:32.767Z,2.65
2023-01-03T14:56:00.486Z,2.80
2023-01-03T14:58:33.507Z,2.30
2023-01-03T15:01:06.648Z,3.13
2023-01-03T15:03:41.199Z,3.30
2023-01-03T15:06:31.468Z,3.03
2023-01-03T15:09:22.487Z,2.78
2023-01-03T15:11:56.793Z,3.08
2023-01-03T15:14:30.068Z,3.40
2023-01-03T15:17:09.848Z,2.90
2023-01-03T15:19:40.395Z,2.80
2023-01-03T15:22:08.965Z,3.35
2023-01-03T15:24:47.872Z,3.42
2023-01-03T15:27:39.453Z,3.03
2023-01-03T15:30:26.724Z,2.88
2023-01-03T15:33:20.413Z,3.42
2023-01-03T15:35:50.791Z,3.17
2023-01-03T15:38:38.661Z,3.00
2023-01-03T15:41:45.136Z,2.65
2023-01-03T15:44:13.719Z,3.10
2023-01-03T15:46:45.693Z,3.33
2023-01-03T15:49:15.487Z,3.00
2023-01-03T15:51:42.713Z,3.38
2023-01-03T15:54:14.310Z,3.03
2023-01-03T15:57:05.541Z,3.28
2023-01-03T15:59:41.290Z,3.20
2023-01-03T16:02:16.998Z,3.00
2023-01-03T16:04:48.701Z,2.72
2023-01-03T16:07:15.966Z,3.00
2023-01-03T16:09:42.977Z,3.65
2023-01-03T16:12:17.196Z,4.00
2023-01-03T16:14:46.803Z,5.85
2023-01-03T16:17:24.297Z,8.68
2023-01-03T16:19:52.606Z,10.05
2023-01-03T16:22:37.047Z,8.25
2023-01-03T16:25:05.550Z,5.43
2023-01-03T16:27:32.740Z,4.80
2023-01-03T16:29:59.693Z,3.45
2023-01-03T16:32:29.922Z,4.10
2023-01-03T16:35:15.830Z,4.38
2023-01-03T16:37:43.255Z,4.63
2023-01-03T16:40:20.979Z,4.40
2023-01-03T16:42:48.505Z,4.25
2023-01-03T16:45:16.388Z,2.65
2023-01-03T16:47:43.956Z,3.00
2023-01-03T16:50:19.848Z,3.05
2023-01-03T16:52:52.477Z,2.63
2023-01-03T16:55:26.904Z,2.75
2023-01-03T16:57:55.425Z,2.22
2023-01-03T17:00:25.347Z,2.00
2023-01-03T17:02:54.655Z,2.22
2023-01-03T17:05:22.663Z,2.80
2023-01-03T17:07:53.035Z,2.70
2023-01-03T17:10:30.370Z,2.75
2023-01-03T17:12:59.041Z,2.58
2023-01-03T17:15:26.583Z,2.55
2023-01-03T17:17:53.462Z,2.17
2023-01-03T17:20:22.235Z,2.60
2023-01-03T17:22:56.545Z,2.40
2023-01-03T17:25:23.963Z,2.90
2023-01-03T17:27:56.065Z,2.85
2023-01-03T17:30:26.572Z,2.80
2023-01-03T17:32:53.956Z,3.22
2023-01-03T17:35:21.161Z,2.60
2023-01-03T17:40:35.424Z,2.10
2023-01-03T17:43:02.914Z,2.25
2023-01-03T17:45:48.878Z,2.60
2023-01-03T17:48:34.296Z,2.50
2023-01-03T17:51:02.104Z,2.60
2023-01-03T17:53:29.650Z,2.72
2023-01-03T17:55:56.788Z,2.67
2023-01-03T17:58:37.967Z,3.00
2023-01-03T18:01:08.304Z,3.03
2023-01-03T18:03:37.115Z,2.83
2023-01-03T18:06:10.820Z,3.60
2023-01-03T18:08:38.021Z,2.97
2023-01-03T18:11:07.553Z,3.65
2023-01-03T18:13:37.183Z,2.97
2023-01-03T18:16:04.733Z,3.65
2023-01-03T18:18:32.362Z,3.38
2023-01-03T18:20:59.518Z,2.78
2023-01-03T18:23:33.114Z,2.72
2023-01-03T18:26:03.478Z,3.20
2023-01-03T18:28:30.690Z,3.75
2023-01-03T18:30:57.963Z,4.30
2023-01-03T18:33:25.955Z,4.82
2023-01-03T18:35:53.509Z,5.13
2023-01-03T18:38:41.532Z,5.00
2023-01-03T18:41:21.834Z,5.75
2023-01-03T18:43:48.753Z,4.47
2023-01-03T18:46:16.773Z,4.55
2023-01-03T18:48:44.074Z,4.03
2023-01-03T18:51:17.001Z,4.75
2023-01-03T18:53:46.610Z,4.20
2023-01-03T18:56:35.784Z,4.07
2023-01-03T18:59:10.093Z,4.35
2023-01-03T19:01:37.188Z,7.90
2023-01-03T19:04:04.299Z,5.00
2023-01-03T19:06:33.488Z,5.43
2023-01-03T19:09:04.714Z,5.18
2023-01-03T19:11:36.707Z,5.72
2023-01-03T19:14:04.445Z,6.00
2023-01-03T19:16:34.003Z,6.57
2023-01-03T19:19:01.525Z,7.25
2023-01-03T19:21:37.846Z,6.63
2023-01-03T19:24:23.656Z,6.60
2023-01-03T19:27:01.677Z,6.47
2023-01-03T19:29:37.060Z,7.18
2023-01-03T19:32:11.534Z,6.78
2023-01-03T19:34:38.455Z,7.10
2023-01-03T19:37:05.513Z,7.45
2023-01-03T19:39:37.373Z,7.00
2023-01-03T19:42:24.961Z,7.65
2023-01-03T19:47:22.941Z,5.65
2023-01-03T19:49:49.941Z,7.40
2023-01-03T19:52:17.725Z,6.53
2023-01-03T19:54:45.070Z,5.55
2023-01-03T19:57:21.273Z,6.40
2023-01-03T19:59:53.169Z,6.32
2023-01-03T20:02:32.433Z,5.28
2023-01-03T20:05:00.304Z,6.05
2023-01-03T20:07:27.441Z,6.20
2023-01-03T20:09:54.407Z,7.25
2023-01-03T20:12:26.590Z,8.27
2023-01-03T20:14:59.953Z,6.95
2023-01-03T20:17:29.712Z,7.03
2023-01-03T20:19:56.635Z,6.70
2023-01-03T20:23:03.239Z,5.90
2023-01-03T20:25:31.672Z,7.53
2023-01-03T20:28:00.123Z,5.07
2023-01-03T20:30:29.635Z,6.03
2023-01-03T20:32:56.867Z,5.97
2023-01-03T20:36:06.974Z,5.13
2023-01-03T20:38:13.049Z,7.10
2023-01-03T20:40:40.042Z,5.82
2023-01-03T20:43:13.555Z,6.38
2023-01-03T20:45:40.834Z,6.97
2023-01-03T20:48:15.886Z,5.75
2023-01-03T20:50:46.425Z,6.43
2023-01-03T20:53:20.764Z,6.03
2023-01-03T20:55:48.632Z,6.80
2023-01-03T20:58:17.384Z,6.00
2023-01-03T21:00:44.466Z,6.70
2023-01-03T21:03:12.039Z,6.15
2023-01-03T21:05:39.341Z,6.25
2023-01-03T21:08:25.697Z,5.95
2023-01-03T21:10:55.497Z,6.73
2023-01-03T21:13:22.766Z,7.05
2023-01-03T21:15:50.315Z,6.75
2023-01-03T21:18:17.784Z,7.90
2023-01-03T21:20:45.296Z,7.85
2023-01-03T21:23:22.754Z,8.20
2023-01-03T21:25:50.442Z,7.72
2023-01-03T21:28:17.465Z,8.90
2023-01-03T21:30:44.433Z,7.13
2023-01-03T21:33:18.754Z,7.53
2023-01-03T21:35:46.398Z,7.95
2023-01-03T21:38:13.405Z,8.25
2023-01-03T21:40:40.324Z,7.28
2023-01-03T21:43:07.532Z,7.70
2023-01-03T21:45:40.177Z,7.60
2023-01-03T21:48:11.138Z,8.35
2023-01-03T21:50:40.271Z,7.63
2023-01-03T21:53:07.667Z,8.05
2023-01-03T21:55:34.723Z,8.82
2023-01-03T21:58:01.666Z,9.00
2023-01-03T22:00:28.677Z,9.95
2023-01-03T22:03:14.377Z,8.85
2023-01-03T22:05:41.484Z,8.75
2023-01-03T22:08:08.752Z,8.85
2023-01-03T22:10:37.223Z,7.18
2023-01-03T22:13:07.154Z,8.43
2023-01-03T22:15:38.788Z,8.57
2023-01-03T22:18:09.128Z,7.85
2023-01-03T22:20:38.735Z,7.78
2023-01-03T22:23:06.983Z,7.53
2023-01-03T22:25:34.560Z,7.55
2023-01-03T22:28:01.409Z,6.97
2023-01-03T22:30:28.400Z,8.10
2023-01-03T22:32:58.836Z,7.95
2023-01-03T22:35:25.866Z,9.10
2023-01-03T22:37:55.783Z,7.50
2023-01-03T22:40:22.689Z,7.38
2023-01-03T22:42:49.673Z,6.93
2023-01-03T22:45:17.031Z,7.95
2023-01-03T22:47:43.926Z,8.75
2023-01-03T22:50:11.742Z,8.70
2023-01-03T22:52:40.158Z,9.32
2023-01-03T22:55:07.891Z,9.95
2023-01-03T22:57:34.857Z,9.45
2023-01-03T23:00:02.386Z,9.10
2023-01-03T23:02:39.141Z,8.82
2023-01-03T23:05:08.421Z,9.52
2023-01-03T23:07:35.351Z,9.48
2023-01-03T23:10:02.353Z,8.65
2023-01-03T23:12:48.100Z,9.43
2023-01-03T23:15:15.005Z,8.00
2023-01-03T23:17:57.017Z,8.73
2023-01-03T23:20:36.259Z,6.80
2023-01-03T23:23:04.293Z,7.07
2023-01-03T23:25:33.279Z,6.78
2023-01-03T23:28:00.199Z,7.80
2023-01-03T23:30:27.563Z,7.53
2023-01-03T23:32:54.558Z,7.53
2023-01-03T23:35:21.654Z,7.50
2023-01-03T23:37:48.656Z,7.28
2023-01-03T23:40:15.764Z,7.03
2023-01-03T23:42:42.794Z,7.10
2023-01-03T23:45:10.112Z,7.50
2023-01-03T23:47:37.075Z,9.30
2023-01-03T23:50:04.217Z,9.07
2023-01-03T23:52:32.840Z,8.90
2023-01-03T23:55:02.579Z,8.85
2023-01-03T23:57:33.872Z,9.70
